sensor_id;sensor_type;location;lat;lon;timestamp;P1;durP1;ratioP1;P2;durP2;ratioP2
25824;SDS011;13658;44.534;18.694;2024-01-11T00:00:35;272.10;;;103.78;;
25824;SDS011;13658;44.534;18.694;2024-01-11T00:03:01;260.77;;;91.43;;
25824;SDS011;13658;44.534;18.694;2024-01-11T00:05:27;261.17;;;86.00;;
25824;SDS011;13658;44.534;18.694;2024-01-11T00:07:53;255.52;;;89.57;;
25824;SDS011;13658;44.534;18.694;2024-01-11T00:10:19;239.15;;;83.90;;
25824;SDS011;13658;44.534;18.694;2024-01-11T00:12:45;225.20;;;79.75;;
25824;SDS011;13658;44.534;18.694;2024-01-11T00:15:12;225.93;;;83.38;;
25824;SDS011;13658;44.534;18.694;2024-01-11T00:17:38;238.63;;;85.88;;
25824;SDS011;13658;44.534;18.694;2024-01-11T00:20:04;220.57;;;76.45;;
25824;SDS011;13658;44.534;18.694;2024-01-11T00:22:31;226.80;;;80.00;;
25824;SDS011;13658;44.534;18.694;2024-01-11T00:24:57;204.93;;;72.45;;
25824;SDS011;13658;44.534;18.694;2024-01-11T00:27:23;236.32;;;82.82;;
25824;SDS011;13658;44.534;18.694;2024-01-11T00:29:49;199.95;;;68.38;;
25824;SDS011;13658;44.534;18.694;2024-01-11T00:32:15;200.25;;;67.28;;
25824;SDS011;13658;44.534;18.694;2024-01-11T00:34:41;212.35;;;78.85;;
25824;SDS011;13658;44.534;18.694;2024-01-11T00:37:07;208.27;;;68.30;;
25824;SDS011;13658;44.534;18.694;2024-01-11T00:39:33;197.98;;;65.07;;
25824;SDS011;13658;44.534;18.694;2024-01-11T00:41:58;213.30;;;74.90;;
25824;SDS011;13658;44.534;18.694;2024-01-11T00:44:24;195.05;;;69.38;;
25824;SDS011;13658;44.534;18.694;2024-01-11T00:46:50;172.55;;;61.33;;
25824;SDS011;13658;44.534;18.694;2024-01-11T00:49:16;186.05;;;69.47;;
25824;SDS011;13658;44.534;18.694;2024-01-11T00:51:42;149.88;;;53.97;;
25824;SDS011;13658;44.534;18.694;2024-01-11T00:54:08;141.32;;;53.45;;
25824;SDS011;13658;44.534;18.694;2024-01-11T00:56:34;125.75;;;47.65;;
25824;SDS011;13658;44.534;18.694;2024-01-11T00:59:00;116.07;;;42.05;;
25824;SDS011;13658;44.534;18.694;2024-01-11T01:01:26;121.53;;;45.03;;
25824;SDS011;13658;44.534;18.694;2024-01-11T01:03:52;97.57;;;37.45;;
25824;SDS011;13658;44.534;18.694;2024-01-11T01:06:18;124.57;;;43.20;;
25824;SDS011;13658;44.534;18.694;2024-01-11T01:08:44;134.27;;;50.88;;
25824;SDS011;13658;44.534;18.694;2024-01-11T01:11:10;130.63;;;49.47;;
25824;SDS011;13658;44.534;18.694;2024-01-11T01:13:36;139.90;;;53.63;;
25824;SDS011;13658;44.534;18.694;2024-01-11T01:16:02;155.35;;;56.40;;
25824;SDS011;13658;44.534;18.694;2024-01-11T01:18:28;152.50;;;56.95;;
25824;SDS011;13658;44.534;18.694;2024-01-11T01:20:54;139.98;;;50.83;;
25824;SDS011;13658;44.534;18.694;2024-01-11T01:23:20;123.55;;;45.75;;
25824;SDS011;13658;44.534;18.694;2024-01-11T01:25:47;151.68;;;50.92;;
25824;SDS011;13658;44.534;18.694;2024-01-11T01:28:13;130.98;;;44.97;;
25824;SDS011;13658;44.534;18.694;2024-01-11T01:30:39;150.80;;;53.75;;
25824;SDS011;13658;44.534;18.694;2024-01-11T01:33:05;125.50;;;46.25;;
25824;SDS011;13658;44.534;18.694;2024-01-11T01:35:32;151.77;;;58.45;;
25824;SDS011;13658;44.534;18.694;2024-01-11T01:38:00;145.50;;;57.90;;
25824;SDS011;13658;44.534;18.694;2024-01-11T01:40:25;157.55;;;57.80;;
25824;SDS011;13658;44.534;18.694;2024-01-11T01:42:57;141.48;;;53.25;;
25824;SDS011;13658;44.534;18.694;2024-01-11T01:45:25;131.60;;;51.53;;
25824;SDS011;13658;44.534;18.694;2024-01-11T01:47:51;130.52;;;51.45;;
25824;SDS011;13658;44.534;18.694;2024-01-11T01:50:17;115.40;;;45.90;;
25824;SDS011;13658;44.534;18.694;2024-01-11T01:52:45;98.93;;;35.78;;
25824;SDS011;13658;44.534;18.694;2024-01-11T01:55:12;108.57;;;38.95;;
25824;SDS011;13658;44.534;18.694;2024-01-11T01:57:40;108.82;;;38.35;;
25824;SDS011;13658;44.534;18.694;2024-01-11T02:00:10;83.65;;;33.40;;
25824;SDS011;13658;44.534;18.694;2024-01-11T02:02:38;75.93;;;29.65;;
25824;SDS011;13658;44.534;18.694;2024-01-11T02:05:06;74.93;;;29.27;;
25824;SDS011;13658;44.534;18.694;2024-01-11T02:07:33;93.70;;;37.17;;
25824;SDS011;13658;44.534;18.694;2024-01-11T02:09:59;83.03;;;29.10;;
25824;SDS011;13658;44.534;18.694;2024-01-11T02:12:26;82.25;;;30.45;;
25824;SDS011;13658;44.534;18.694;2024-01-11T02:14:53;73.22;;;29.17;;
25824;SDS011;13658;44.534;18.694;2024-01-11T02:17:19;86.35;;;34.10;;
25824;SDS011;13658;44.534;18.694;2024-01-11T02:19:45;66.43;;;25.73;;
25824;SDS011;13658;44.534;18.694;2024-01-11T02:22:12;87.45;;;33.28;;
25824;SDS011;13658;44.534;18.694;2024-01-11T02:24:46;100.43;;;36.30;;
25824;SDS011;13658;44.534;18.694;2024-01-11T02:27:11;105.25;;;39.70;;
25824;SDS011;13658;44.534;18.694;2024-01-11T02:29:37;118.03;;;39.88;;
25824;SDS011;13658;44.534;18.694;2024-01-11T02:32:03;143.50;;;52.25;;
25824;SDS011;13658;44.534;18.694;2024-01-11T02:34:31;148.57;;;54.33;;
25824;SDS011;13658;44.534;18.694;2024-01-11T02:36:57;122.70;;;46.33;;
25824;SDS011;13658;44.534;18.694;2024-01-11T02:39:24;124.28;;;43.85;;
25824;SDS011;13658;44.534;18.694;2024-01-11T02:41:52;130.02;;;51.42;;
25824;SDS011;13658;44.534;18.694;2024-01-11T02:44:22;136.30;;;50.38;;
25824;SDS011;13658;44.534;18.694;2024-01-11T02:46:48;129.00;;;50.63;;
25824;SDS011;13658;44.534;18.694;2024-01-11T02:49:14;104.03;;;39.65;;
25824;SDS011;13658;44.534;18.694;2024-01-11T02:51:40;98.93;;;38.20;;
25824;SDS011;13658;44.534;18.694;2024-01-11T02:54:06;106.97;;;39.38;;
25824;SDS011;13658;44.534;18.694;2024-01-11T02:56:32;118.00;;;41.83;;
25824;SDS011;13658;44.534;18.694;2024-01-11T02:58:58;93.72;;;34.85;;
25824;SDS011;13658;44.534;18.694;2024-01-11T03:01:24;114.70;;;45.80;;
25824;SDS011;13658;44.534;18.694;2024-01-11T03:03:50;115.18;;;46.10;;
25824;SDS011;13658;44.534;18.694;2024-01-11T03:06:16;119.35;;;47.08;;
25824;SDS011;13658;44.534;18.694;2024-01-11T03:08:47;111.30;;;42.72;;
25824;SDS011;13658;44.534;18.694;2024-01-11T03:11:14;88.68;;;32.00;;
25824;SDS011;13658;44.534;18.694;2024-01-11T03:13:40;87.35;;;32.60;;
25824;SDS011;13658;44.534;18.694;2024-01-11T03:16:05;80.43;;;30.27;;
25824;SDS011;13658;44.534;18.694;2024-01-11T03:18:31;91.22;;;35.28;;
25824;SDS011;13658;44.534;18.694;2024-01-11T03:20:57;91.38;;;35.10;;
25824;SDS011;13658;44.534;18.694;2024-01-11T03:23:23;67.72;;;26.02;;
25824;SDS011;13658;44.534;18.694;2024-01-11T03:25:49;68.45;;;27.50;;
25824;SDS011;13658;44.534;18.694;2024-01-11T03:28:15;72.45;;;27.73;;
25824;SDS011;13658;44.534;18.694;2024-01-11T03:30:41;75.72;;;30.30;;
25824;SDS011;13658;44.534;18.694;2024-01-11T03:33:08;63.22;;;24.75;;
25824;SDS011;13658;44.534;18.694;2024-01-11T03:35:34;72.53;;;30.13;;
25824;SDS011;13658;44.534;18.694;2024-01-11T03:38:00;70.47;;;26.85;;
25824;SDS011;13658;44.534;18.694;2024-01-11T03:40:26;77.80;;;29.63;;
25824;SDS011;13658;44.534;18.694;2024-01-11T03:42:51;74.00;;;31.30;;
25824;SDS011;13658;44.534;18.694;2024-01-11T03:45:17;74.43;;;29.08;;
25824;SDS011;13658;44.534;18.694;2024-01-11T03:47:46;71.07;;;29.60;;
25824;SDS011;13658;44.534;18.694;2024-01-11T03:50:12;84.72;;;33.13;;
25824;SDS011;13658;44.534;18.694;2024-01-11T03:52:39;87.65;;;32.92;;
25824;SDS011;13658;44.534;18.694;2024-01-11T03:55:05;86.30;;;33.40;;
25824;SDS011;13658;44.534;18.694;2024-01-11T03:57:31;91.55;;;34.92;;
25824;SDS011;13658;44.534;18.694;2024-01-11T03:59:57;89.03;;;35.65;;
25824;SDS011;13658;44.534;18.694;2024-01-11T04:02:24;90.18;;;34.47;;
25824;SDS011;13658;44.534;18.694;2024-01-11T04:04:50;74.47;;;31.05;;
25824;SDS011;13658;44.534;18.694;2024-01-11T04:07:16;81.50;;;30.80;;
25824;SDS011;13658;44.534;18.694;2024-01-11T04:09:42;74.07;;;29.77;;
25824;SDS011;13658;44.534;18.694;2024-01-11T04:12:08;69.85;;;28.25;;
25824;SDS011;13658;44.534;18.694;2024-01-11T04:14:37;76.00;;;30.17;;
25824;SDS011;13658;44.534;18.694;2024-01-11T04:17:05;89.70;;;33.47;;
25824;SDS011;13658;44.534;18.694;2024-01-11T04:19:31;76.88;;;29.90;;
25824;SDS011;13658;44.534;18.694;2024-01-11T04:21:57;73.35;;;31.35;;
25824;SDS011;13658;44.534;18.694;2024-01-11T04:24:23;80.13;;;32.30;;
25824;SDS011;13658;44.534;18.694;2024-01-11T04:26:50;91.10;;;35.65;;
25824;SDS011;13658;44.534;18.694;2024-01-11T04:29:16;88.32;;;34.67;;
25824;SDS011;13658;44.534;18.694;2024-01-11T04:31:41;99.43;;;38.78;;
25824;SDS011;13658;44.534;18.694;2024-01-11T04:34:07;94.47;;;35.88;;
25824;SDS011;13658;44.534;18.694;2024-01-11T04:36:36;95.82;;;35.63;;
25824;SDS011;13658;44.534;18.694;2024-01-11T04:39:03;77.32;;;33.38;;
25824;SDS011;13658;44.534;18.694;2024-01-11T04:41:29;80.15;;;33.10;;
25824;SDS011;13658;44.534;18.694;2024-01-11T04:43:55;71.65;;;30.83;;
25824;SDS011;13658;44.534;18.694;2024-01-11T04:46:21;84.80;;;34.60;;
25824;SDS011;13658;44.534;18.694;2024-01-11T04:48:48;77.07;;;29.42;;
25824;SDS011;13658;44.534;18.694;2024-01-11T04:51:15;73.60;;;29.00;;
25824;SDS011;13658;44.534;18.694;2024-01-11T04:53:42;78.50;;;31.02;;
25824;SDS011;13658;44.534;18.694;2024-01-11T04:56:10;81.30;;;32.30;;
25824;SDS011;13658;44.534;18.694;2024-01-11T04:58:39;81.78;;;35.10;;
25824;SDS011;13658;44.534;18.694;2024-01-11T05:01:07;84.38;;;34.08;;
25824;SDS011;13658;44.534;18.694;2024-01-11T05:03:37;78.32;;;30.95;;
25824;SDS011;13658;44.534;18.694;2024-01-11T05:06:03;76.78;;;33.03;;
25824;SDS011;13658;44.534;18.694;2024-01-11T05:08:29;73.72;;;32.65;;
25824;SDS011;13658;44.534;18.694;2024-01-11T05:10:55;90.40;;;36.40;;
25824;SDS011;13658;44.534;18.694;2024-01-11T05:13:21;88.32;;;35.55;;
25824;SDS011;13658;44.534;18.694;2024-01-11T05:15:47;85.35;;;35.35;;
25824;SDS011;13658;44.534;18.694;2024-01-11T05:18:13;82.05;;;35.78;;
25824;SDS011;13658;44.534;18.694;2024-01-11T05:20:39;93.22;;;35.33;;
25824;SDS011;13658;44.534;18.694;2024-01-11T05:23:06;86.03;;;36.85;;
25824;SDS011;13658;44.534;18.694;2024-01-11T05:25:32;89.47;;;36.45;;
25824;SDS011;13658;44.534;18.694;2024-01-11T05:28:01;88.93;;;37.65;;
25824;SDS011;13658;44.534;18.694;2024-01-11T05:30:28;82.18;;;35.58;;
25824;SDS011;13658;44.534;18.694;2024-01-11T05:32:55;91.18;;;38.50;;
25824;SDS011;13658;44.534;18.694;2024-01-11T05:35:21;90.45;;;36.97;;
25824;SDS011;13658;44.534;18.694;2024-01-11T05:37:52;94.82;;;38.05;;
25824;SDS011;13658;44.534;18.694;2024-01-11T05:40:20;91.72;;;37.45;;
25824;SDS011;13658;44.534;18.694;2024-01-11T05:42:47;100.63;;;38.50;;
25824;SDS011;13658;44.534;18.694;2024-01-11T05:45:13;105.35;;;39.75;;
25824;SDS011;13658;44.534;18.694;2024-01-11T05:47:42;119.47;;;45.13;;
25824;SDS011;13658;44.534;18.694;2024-01-11T05:50:09;129.63;;;47.95;;
25824;SDS011;13658;44.534;18.694;2024-01-11T05:52:36;138.68;;;47.88;;
25824;SDS011;13658;44.534;18.694;2024-01-11T05:55:02;131.25;;;45.63;;
25824;SDS011;13658;44.534;18.694;2024-01-11T05:57:29;131.95;;;49.08;;
25824;SDS011;13658;44.534;18.694;2024-01-11T05:59:55;147.77;;;52.88;;
25824;SDS011;13658;44.534;18.694;2024-01-11T06:02:20;147.38;;;51.72;;
25824;SDS011;13658;44.534;18.694;2024-01-11T06:04:48;130.40;;;48.50;;
25824;SDS011;13658;44.534;18.694;2024-01-11T06:07:14;121.15;;;45.58;;
25824;SDS011;13658;44.534;18.694;2024-01-11T06:09:41;85.78;;;35.38;;
25824;SDS011;13658;44.534;18.694;2024-01-11T06:12:06;96.13;;;38.83;;
25824;SDS011;13658;44.534;18.694;2024-01-11T06:14:34;108.85;;;42.85;;
25824;SDS011;13658;44.534;18.694;2024-01-11T06:17:00;122.00;;;44.83;;
25824;SDS011;13658;44.534;18.694;2024-01-11T06:19:26;98.72;;;42.05;;
25824;SDS011;13658;44.534;18.694;2024-01-11T06:21:52;100.60;;;41.08;;
25824;SDS011;13658;44.534;18.694;2024-01-11T06:24:18;120.78;;;45.75;;
25824;SDS011;13658;44.534;18.694;2024-01-11T06:26:44;117.68;;;47.22;;
25824;SDS011;13658;44.534;18.694;2024-01-11T06:29:10;125.55;;;47.65;;
25824;SDS011;13658;44.534;18.694;2024-01-11T06:31:36;125.93;;;53.00;;
25824;SDS011;13658;44.534;18.694;2024-01-11T06:34:02;153.60;;;57.42;;
25824;SDS011;13658;44.534;18.694;2024-01-11T06:36:29;148.68;;;56.58;;
25824;SDS011;13658;44.534;18.694;2024-01-11T06:38:55;150.98;;;55.15;;
25824;SDS011;13658;44.534;18.694;2024-01-11T06:41:21;152.68;;;57.65;;
25824;SDS011;13658;44.534;18.694;2024-01-11T06:43:47;111.30;;;43.97;;
25824;SDS011;13658;44.534;18.694;2024-01-11T06:46:13;134.48;;;51.90;;
25824;SDS011;13658;44.534;18.694;2024-01-11T06:48:39;128.20;;;50.35;;
25824;SDS011;13658;44.534;18.694;2024-01-11T06:51:05;148.88;;;55.45;;
25824;SDS011;13658;44.534;18.694;2024-01-11T06:53:31;155.20;;;56.50;;
25824;SDS011;13658;44.534;18.694;2024-01-11T06:55:57;141.88;;;53.85;;
25824;SDS011;13658;44.534;18.694;2024-01-11T06:58:23;131.93;;;49.92;;
25824;SDS011;13658;44.534;18.694;2024-01-11T07:00:49;135.25;;;53.03;;
25824;SDS011;13658;44.534;18.694;2024-01-11T07:03:16;127.30;;;49.55;;
25824;SDS011;13658;44.534;18.694;2024-01-11T07:05:43;109.40;;;45.55;;
25824;SDS011;13658;44.534;18.694;2024-01-11T07:08:09;116.55;;;46.35;;
25824;SDS011;13658;44.534;18.694;2024-01-11T07:10:35;126.35;;;50.58;;
25824;SDS011;13658;44.534;18.694;2024-01-11T07:13:00;117.93;;;50.08;;
25824;SDS011;13658;44.534;18.694;2024-01-11T07:15:26;132.20;;;51.55;;
25824;SDS011;13658;44.534;18.694;2024-01-11T07:17:53;138.73;;;54.83;;
25824;SDS011;13658;44.534;18.694;2024-01-11T07:20:19;136.38;;;55.55;;
25824;SDS011;13658;44.534;18.694;2024-01-11T07:22:45;150.77;;;59.17;;
25824;SDS011;13658;44.534;18.694;2024-01-11T07:25:11;147.10;;;59.65;;
25824;SDS011;13658;44.534;18.694;2024-01-11T07:27:36;147.85;;;61.47;;
25824;SDS011;13658;44.534;18.694;2024-01-11T07:30:02;141.32;;;58.78;;
25824;SDS011;13658;44.534;18.694;2024-01-11T07:32:31;161.43;;;63.33;;
25824;SDS011;13658;44.534;18.694;2024-01-11T07:34:57;164.13;;;63.38;;
25824;SDS011;13658;44.534;18.694;2024-01-11T07:37:23;155.98;;;63.30;;
25824;SDS011;13658;44.534;18.694;2024-01-11T07:39:50;177.70;;;70.25;;
25824;SDS011;13658;44.534;18.694;2024-01-11T07:42:17;196.48;;;77.57;;
25824;SDS011;13658;44.534;18.694;2024-01-11T07:44:44;163.23;;;64.93;;
25824;SDS011;13658;44.534;18.694;2024-01-11T07:47:10;158.55;;;62.08;;
25824;SDS011;13658;44.534;18.694;2024-01-11T07:49:36;168.52;;;65.90;;
25824;SDS011;13658;44.534;18.694;2024-01-11T07:52:02;158.88;;;63.25;;
25824;SDS011;13658;44.534;18.694;2024-01-11T07:54:30;130.32;;;54.83;;
25824;SDS011;13658;44.534;18.694;2024-01-11T07:56:57;133.93;;;58.85;;
25824;SDS011;13658;44.534;18.694;2024-01-11T07:59:23;138.45;;;56.80;;
25824;SDS011;13658;44.534;18.694;2024-01-11T08:01:49;130.32;;;50.90;;
25824;SDS011;13658;44.534;18.694;2024-01-11T08:04:15;113.40;;;46.33;;
25824;SDS011;13658;44.534;18.694;2024-01-11T08:06:41;119.07;;;50.85;;
25824;SDS011;13658;44.534;18.694;2024-01-11T08:09:06;132.13;;;56.72;;
25824;SDS011;13658;44.534;18.694;2024-01-11T08:11:35;122.72;;;52.13;;
25824;SDS011;13658;44.534;18.694;2024-01-11T08:14:01;92.28;;;39.10;;
25824;SDS011;13658;44.534;18.694;2024-01-11T08:16:27;58.50;;;23.52;;
25824;SDS011;13658;44.534;18.694;2024-01-11T08:18:53;52.65;;;22.60;;
25824;SDS011;13658;44.534;18.694;2024-01-11T08:21:19;54.20;;;22.63;;
25824;SDS011;13658;44.534;18.694;2024-01-11T08:23:45;53.20;;;21.88;;
25824;SDS011;13658;44.534;18.694;2024-01-11T08:26:14;49.03;;;20.52;;
25824;SDS011;13658;44.534;18.694;2024-01-11T08:28:40;53.40;;;21.40;;
25824;SDS011;13658;44.534;18.694;2024-01-11T08:31:07;58.70;;;24.38;;
25824;SDS011;13658;44.534;18.694;2024-01-11T08:33:34;50.00;;;21.83;;
25824;SDS011;13658;44.534;18.694;2024-01-11T08:36:02;60.55;;;25.75;;
25824;SDS011;13658;44.534;18.694;2024-01-11T08:38:29;57.15;;;24.30;;
25824;SDS011;13658;44.534;18.694;2024-01-11T08:40:57;57.85;;;23.70;;
25824;SDS011;13658;44.534;18.694;2024-01-11T08:43:24;64.65;;;25.77;;
25824;SDS011;13658;44.534;18.694;2024-01-11T08:45:51;56.85;;;24.75;;
25824;SDS011;13658;44.534;18.694;2024-01-11T08:48:17;62.17;;;24.80;;
25824;SDS011;13658;44.534;18.694;2024-01-11T08:50:43;56.38;;;24.45;;
25824;SDS011;13658;44.534;18.694;2024-01-11T08:53:09;61.88;;;25.63;;
25824;SDS011;13658;44.534;18.694;2024-01-11T08:55:35;59.55;;;24.92;;
25824;SDS011;13658;44.534;18.694;2024-01-11T08:58:01;78.00;;;30.38;;
25824;SDS011;13658;44.534;18.694;2024-01-11T09:00:27;63.08;;;26.75;;
25824;SDS011;13658;44.534;18.694;2024-01-11T09:02:53;77.38;;;32.50;;
25824;SDS011;13658;44.534;18.694;2024-01-11T09:05:19;69.40;;;28.42;;
25824;SDS011;13658;44.534;18.694;2024-01-11T09:07:46;65.25;;;26.77;;
25824;SDS011;13658;44.534;18.694;2024-01-11T09:10:12;65.68;;;26.40;;
25824;SDS011;13658;44.534;18.694;2024-01-11T09:12:38;66.95;;;27.60;;
25824;SDS011;13658;44.534;18.694;2024-01-11T09:15:04;66.10;;;28.52;;
25824;SDS011;13658;44.534;18.694;2024-01-11T09:17:30;114.93;;;45.33;;
25824;SDS011;13658;44.534;18.694;2024-01-11T09:19:57;74.95;;;30.83;;
25824;SDS011;13658;44.534;18.694;2024-01-11T09:22:23;70.93;;;29.88;;
25824;SDS011;13658;44.534;18.694;2024-01-11T09:24:49;62.05;;;27.23;;
25824;SDS011;13658;44.534;18.694;2024-01-11T09:27:16;59.55;;;24.88;;
25824;SDS011;13658;44.534;18.694;2024-01-11T09:29:42;67.18;;;30.20;;
25824;SDS011;13658;44.534;18.694;2024-01-11T09:32:09;81.03;;;31.75;;
25824;SDS011;13658;44.534;18.694;2024-01-11T09:34:35;61.00;;;26.15;;
25824;SDS011;13658;44.534;18.694;2024-01-11T09:37:01;58.47;;;27.10;;
25824;SDS011;13658;44.534;18.694;2024-01-11T09:39:29;58.88;;;25.95;;
25824;SDS011;13658;44.534;18.694;2024-01-11T09:41:59;61.50;;;25.60;;
25824;SDS011;13658;44.534;18.694;2024-01-11T09:44:38;65.55;;;25.63;;
25824;SDS011;13658;44.534;18.694;2024-01-11T09:47:05;56.58;;;24.35;;
25824;SDS011;13658;44.534;18.694;2024-01-11T09:49:33;62.33;;;25.95;;
25824;SDS011;13658;44.534;18.694;2024-01-11T09:52:03;60.25;;;25.92;;
25824;SDS011;13658;44.534;18.694;2024-01-11T09:54:30;67.47;;;28.67;;
25824;SDS011;13658;44.534;18.694;2024-01-11T09:56:59;58.60;;;25.85;;
25824;SDS011;13658;44.534;18.694;2024-01-11T09:59:28;61.15;;;27.00;;
25824;SDS011;13658;44.534;18.694;2024-01-11T10:01:55;65.53;;;28.60;;
25824;SDS011;13658;44.534;18.694;2024-01-11T10:04:21;63.45;;;28.20;;
25824;SDS011;13658;44.534;18.694;2024-01-11T10:06:48;89.10;;;37.60;;
25824;SDS011;13658;44.534;18.694;2024-01-11T10:09:16;60.90;;;27.73;;
25824;SDS011;13658;44.534;18.694;2024-01-11T10:11:43;59.30;;;27.67;;
25824;SDS011;13658;44.534;18.694;2024-01-11T10:14:11;61.70;;;26.58;;
25824;SDS011;13658;44.534;18.694;2024-01-11T10:16:37;78.97;;;33.47;;
25824;SDS011;13658;44.534;18.694;2024-01-11T10:19:03;74.10;;;30.88;;
25824;SDS011;13658;44.534;18.694;2024-01-11T10:21:29;70.15;;;31.00;;
25824;SDS011;13658;44.534;18.694;2024-01-11T10:23:55;68.88;;;28.25;;
25824;SDS011;13658;44.534;18.694;2024-01-11T10:26:24;71.25;;;29.83;;
25824;SDS011;13658;44.534;18.694;2024-01-11T10:28:50;65.60;;;27.70;;
25824;SDS011;13658;44.534;18.694;2024-01-11T10:31:16;62.38;;;27.20;;
25824;SDS011;13658;44.534;18.694;2024-01-11T10:33:42;64.05;;;28.38;;
25824;SDS011;13658;44.534;18.694;2024-01-11T10:36:08;60.08;;;26.65;;
25824;SDS011;13658;44.534;18.694;2024-01-11T10:38:37;86.72;;;36.40;;
25824;SDS011;13658;44.534;18.694;2024-01-11T10:41:05;64.43;;;28.63;;
25824;SDS011;13658;44.534;18.694;2024-01-11T10:43:32;70.63;;;29.90;;
25824;SDS011;13658;44.534;18.694;2024-01-11T10:46:01;62.25;;;27.65;;
25824;SDS011;13658;44.534;18.694;2024-01-11T10:48:33;66.80;;;28.63;;
25824;SDS011;13658;44.534;18.694;2024-01-11T10:51:08;66.03;;;28.90;;
25824;SDS011;13658;44.534;18.694;2024-01-11T10:56:13;71.53;;;29.98;;
25824;SDS011;13658;44.534;18.694;2024-01-11T10:58:43;68.18;;;30.00;;
25824;SDS011;13658;44.534;18.694;2024-01-11T11:01:10;68.28;;;29.42;;
25824;SDS011;13658;44.534;18.694;2024-01-11T11:03:37;67.65;;;29.15;;
25824;SDS011;13658;44.534;18.694;2024-01-11T11:06:05;72.53;;;31.27;;
25824;SDS011;13658;44.534;18.694;2024-01-11T11:08:35;82.00;;;34.50;;
25824;SDS011;13658;44.534;18.694;2024-01-11T11:11:02;78.22;;;33.20;;
25824;SDS011;13658;44.534;18.694;2024-01-11T11:13:31;77.63;;;32.65;;
25824;SDS011;13658;44.534;18.694;2024-01-11T11:15:58;75.80;;;34.65;;
25824;SDS011;13658;44.534;18.694;2024-01-11T11:18:24;76.93;;;33.22;;
25824;SDS011;13658;44.534;18.694;2024-01-11T11:20:51;77.72;;;33.25;;
25824;SDS011;13658;44.534;18.694;2024-01-11T11:23:18;73.05;;;32.28;;
25824;SDS011;13658;44.534;18.694;2024-01-11T11:25:45;85.15;;;37.05;;
25824;SDS011;13658;44.534;18.694;2024-01-11T11:28:12;82.25;;;35.90;;
25824;SDS011;13658;44.534;18.694;2024-01-11T11:30:42;74.95;;;33.53;;
25824;SDS011;13658;44.534;18.694;2024-01-11T11:33:10;74.00;;;33.55;;
25824;SDS011;13658;44.534;18.694;2024-01-11T11:35:41;80.70;;;35.25;;
25824;SDS011;13658;44.534;18.694;2024-01-11T11:38:08;75.72;;;34.78;;
25824;SDS011;13658;44.534;18.694;2024-01-11T11:40:42;80.88;;;35.70;;
25824;SDS011;13658;44.534;18.694;2024-01-11T11:43:10;72.43;;;32.67;;
25824;SDS011;13658;44.534;18.694;2024-01-11T11:45:37;79.20;;;36.70;;
25824;SDS011;13658;44.534;18.694;2024-01-11T11:53:37;72.97;;;33.58;;
25824;SDS011;13658;44.534;18.694;2024-01-11T11:56:04;88.72;;;37.22;;
25824;SDS011;13658;44.534;18.694;2024-01-11T11:58:32;87.70;;;37.45;;
25824;SDS011;13658;44.534;18.694;2024-01-11T12:00:59;107.72;;;43.08;;
25824;SDS011;13658;44.534;18.694;2024-01-11T12:03:29;82.97;;;37.67;;
25824;SDS011;13658;44.534;18.694;2024-01-11T12:05:57;89.05;;;39.50;;
25824;SDS011;13658;44.534;18.694;2024-01-11T12:08:24;89.32;;;38.67;;
25824;SDS011;13658;44.534;18.694;2024-01-11T12:10:50;86.35;;;38.15;;
25824;SDS011;13658;44.534;18.694;2024-01-11T12:13:20;103.00;;;40.17;;
25824;SDS011;13658;44.534;18.694;2024-01-11T12:15:46;92.55;;;41.70;;
25824;SDS011;13658;44.534;18.694;2024-01-11T12:18:12;86.95;;;38.92;;
25824;SDS011;13658;44.534;18.694;2024-01-11T12:20:38;89.80;;;40.95;;
25824;SDS011;13658;44.534;18.694;2024-01-11T12:23:04;98.15;;;39.30;;
25824;SDS011;13658;44.534;18.694;2024-01-11T12:25:30;111.88;;;44.22;;
25824;SDS011;13658;44.534;18.694;2024-01-11T12:27:57;99.22;;;41.92;;
25824;SDS011;13658;44.534;18.694;2024-01-11T12:30:26;96.55;;;40.00;;
25824;SDS011;13658;44.534;18.694;2024-01-11T12:32:52;88.53;;;40.55;;
25824;SDS011;13658;44.534;18.694;2024-01-11T12:35:20;88.20;;;38.00;;
25824;SDS011;13658;44.534;18.694;2024-01-11T12:37:55;100.28;;;40.30;;
25824;SDS011;13658;44.534;18.694;2024-01-11T12:40:26;91.43;;;39.13;;
25824;SDS011;13658;44.534;18.694;2024-01-11T12:42:53;99.68;;;42.35;;
25824;SDS011;13658;44.534;18.694;2024-01-11T12:45:19;105.70;;;42.80;;
25824;SDS011;13658;44.534;18.694;2024-01-11T12:47:45;101.10;;;42.00;;
25824;SDS011;13658;44.534;18.694;2024-01-11T12:50:12;100.60;;;41.80;;
25824;SDS011;13658;44.534;18.694;2024-01-11T12:52:38;98.03;;;41.60;;
25824;SDS011;13658;44.534;18.694;2024-01-11T12:55:06;93.93;;;40.30;;
25824;SDS011;13658;44.534;18.694;2024-01-11T12:57:33;93.40;;;40.08;;
25824;SDS011;13658;44.534;18.694;2024-01-11T13:00:09;90.30;;;39.20;;
25824;SDS011;13658;44.534;18.694;2024-01-11T13:02:36;92.47;;;38.05;;
25824;SDS011;13658;44.534;18.694;2024-01-11T13:05:02;90.78;;;39.30;;
25824;SDS011;13658;44.534;18.694;2024-01-11T13:07:30;99.85;;;41.92;;
25824;SDS011;13658;44.534;18.694;2024-01-11T13:09:56;97.90;;;40.10;;
25824;SDS011;13658;44.534;18.694;2024-01-11T13:12:22;97.15;;;41.05;;
25824;SDS011;13658;44.534;18.694;2024-01-11T13:14:48;100.18;;;40.22;;
25824;SDS011;13658;44.534;18.694;2024-01-11T13:17:16;97.70;;;44.47;;
25824;SDS011;13658;44.534;18.694;2024-01-11T13:19:43;92.63;;;39.97;;
25824;SDS011;13658;44.534;18.694;2024-01-11T13:22:10;152.43;;;59.28;;
25824;SDS011;13658;44.534;18.694;2024-01-11T13:24:36;101.38;;;42.83;;
25824;SDS011;13658;44.534;18.694;2024-01-11T13:27:02;112.97;;;44.70;;
25824;SDS011;13658;44.534;18.694;2024-01-11T13:29:28;100.53;;;42.65;;
25824;SDS011;13658;44.534;18.694;2024-01-11T13:31:54;102.70;;;40.95;;
25824;SDS011;13658;44.534;18.694;2024-01-11T13:34:20;108.28;;;44.83;;
25824;SDS011;13658;44.534;18.694;2024-01-11T13:36:46;125.40;;;49.08;;
25824;SDS011;13658;44.534;18.694;2024-01-11T13:39:12;109.00;;;43.08;;
25824;SDS011;13658;44.534;18.694;2024-01-11T13:41:38;108.93;;;42.13;;
25824;SDS011;13658;44.534;18.694;2024-01-11T13:44:06;103.65;;;43.15;;
25824;SDS011;13658;44.534;18.694;2024-01-11T13:46:35;107.32;;;42.35;;
25824;SDS011;13658;44.534;18.694;2024-01-11T13:49:01;101.22;;;42.40;;
25824;SDS011;13658;44.534;18.694;2024-01-11T13:51:28;99.90;;;41.53;;
25824;SDS011;13658;44.534;18.694;2024-01-11T13:53:54;106.47;;;42.85;;
25824;SDS011;13658;44.534;18.694;2024-01-11T13:56:20;108.50;;;44.70;;
25824;SDS011;13658;44.534;18.694;2024-01-11T13:58:46;104.97;;;44.22;;
25824;SDS011;13658;44.534;18.694;2024-01-11T14:01:12;119.38;;;49.70;;
25824;SDS011;13658;44.534;18.694;2024-01-11T14:03:38;129.98;;;52.72;;
25824;SDS011;13658;44.534;18.694;2024-01-11T14:06:04;127.78;;;51.03;;
25824;SDS011;13658;44.534;18.694;2024-01-11T14:08:30;108.50;;;47.08;;